Time;durP1;ratioP1;P1;durP2;ratioP2;P2;SDS_P1;SDS_P2;PMS_P1;PMS_P2;Temp;Humidity;BMP_temperature;BMP_pressure;BME280_temperature;BME280_humidity;BME280_pressure;Samples;Min_cycle;Max_cycle;Signal;HPM_P1;HPM_P2
2023/03/10 00:01:22;;;;;;;7.50;6.53;;;;;;;4.19;100.00;98728.03;5090653;28;20079;-36
2023/03/10 00:03:48;;;;;;;7.63;6.28;;;;;;;4.21;100.00;98735.84;5090321;28;20500;-36
2023/03/10 00:06:16;;;;;;;5.93;5.28;;;;;;;4.18;100.00;98725.63;5090021;28;20021;-36
2023/03/10 00:08:42;;;;;;;6.38;5.78;;;;;;;4.14;100.00;98738.66;5089904;28;20043;-36
2023/03/10 00:11:08;;;;;;;;;;;;;;;4.23;100.00;98741.75;5090017;28;20029;-36
2023/03/10 00:13:34;;;;;;;6.43;5.82;;;;;;;4.12;100.00;98743.44;5079692;28;19912;-36
2023/03/10 00:15:59;;;;;;;6.20;5.60;;;;;;;4.16;100.00;98741.09;5077122;28;20472;-35
2023/03/10 00:18:25;;;;;;;5.80;5.30;;;;;;;4.16;100.00;98749.13;5076194;28;20025;-36
2023/03/10 00:20:51;;;;;;;6.47;5.87;;;;;;;4.10;100.00;98737.53;5076427;28;20069;-35
2023/03/10 00:23:18;;;;;;;6.82;6.13;;;;;;;4.18;100.00;98749.69;5074792;28;20032;-36
2023/03/10 00:25:43;;;;;;;;;;;;;;;4.24;100.00;98738.84;5076619;28;20059;-36
2023/03/10 00:28:08;;;;;;;9.23;7.10;;;;;;;4.21;100.00;98746.53;5076010;28;20340;-36
2023/03/10 00:30:34;;;;;;;8.27;7.37;;;;;;;4.20;100.00;98736.88;5076075;28;20325;-36
2023/03/10 00:33:00;;;;;;;7.53;6.82;;;;;;;4.20;100.00;98737.72;5076243;28;20035;-36
2023/03/10 00:35:26;;;;;;;7.95;7.15;;;;;;;4.20;100.00;98732.38;5075941;28;20056;-35
2023/03/10 00:37:52;;;;;;;6.90;6.25;;;;;;;4.21;100.00;98728.63;5075839;28;20036;-35
2023/03/10 00:40:17;;;;;;;6.63;5.85;;;;;;;4.25;100.00;98728.97;5076385;28;20040;-35
2023/03/10 00:42:43;;;;;;;6.82;6.13;;;;;;;4.09;100.00;98703.78;5075750;28;20024;-35
2023/03/10 00:45:09;;;;;;;5.72;5.22;;;;;;;4.31;100.00;98728.00;5076344;28;20024;-35
2023/03/10 00:47:34;;;;;;;6.88;6.20;;;;;;;4.33;100.00;98734.72;5075706;28;20111;-35
2023/03/10 00:50:00;;;;;;;6.27;5.67;;;;;;;4.30;100.00;98729.84;5075720;28;20095;-35
2023/03/10 00:52:26;;;;;;;7.75;7.00;;;;;;;4.36;100.00;98744.13;5075590;28;20043;-35
2023/03/10 00:54:52;;;;;;;6.60;6.00;;;;;;;4.40;100.00;98750.63;5076503;28;20067;-35
2023/03/10 00:57:18;;;;;;;6.40;5.80;;;;;;;4.33;100.00;98733.91;5075524;28;20064;-35
2023/03/10 00:59:43;;;;;;;6.67;6.07;;;;;;;4.30;100.00;98729.84;5076362;28;20122;-35
2023/03/10 01:02:08;;;;;;;6.60;5.88;;;;;;;4.44;100.00;98745.59;5075203;28;20461;-35
2023/03/10 01:04:34;;;;;;;6.87;6.27;;;;;;;4.45;100.00;98742.69;5075773;28;20064;-35
2023/03/10 01:06:59;;;;;;;6.50;5.90;;;;;;;4.47;100.00;98747.78;5075873;28;20043;-35
2023/03/10 01:09:25;;;;;;;7.67;6.20;;;;;;;4.47;100.00;98740.56;5076113;28;20024;-35
2023/03/10 01:11:50;;;;;;;7.85;7.05;;;;;;;4.44;100.00;98742.91;5075516;28;20428;-35
2023/03/10 01:14:16;;;;;;;6.63;5.90;;;;;;;4.48;100.00;98744.06;5075206;28;20559;-35
2023/03/10 01:16:41;;;;;;;6.95;6.25;;;;;;;4.41;100.00;98725.47;5075149;28;20037;-35
2023/03/10 01:19:07;;;;;;;6.83;6.17;;;;;;;4.48;100.00;98730.66;5075206;28;20081;-35
2023/03/10 01:21:35;;;;;;;6.75;6.15;;;;;;;4.48;100.00;98726.13;5075230;28;20086;-36
2023/03/10 01:24:02;;;;;;;7.07;6.38;;;;;;;4.51;100.00;98730.19;5074226;28;20029;-36
2023/03/10 01:26:28;;;;;;;7.18;6.47;;;;;;;4.49;100.00;98724.25;5074556;28;20052;-36
2023/03/10 01:28:53;;;;;;;6.35;5.85;;;;;;;4.50;100.00;98710.66;5074629;28;20078;-36
2023/03/10 01:31:19;;;;;;;6.37;5.77;;;;;;;4.58;100.00;98722.81;5075740;28;20032;-36
2023/03/10 01:33:45;;;;;;;7.50;6.80;;;;;;;4.56;100.00;98724.94;5074843;28;20032;-36
2023/03/10 01:36:12;;;;;;;;;;;;;;;4.65;100.00;98723.47;5075492;28;20118;-36
2023/03/10 01:38:38;;;;;;;8.03;7.30;;;;;;;4.63;100.00;98712.97;5074659;28;19908;-36
2023/03/10 01:41:04;;;;;;;;;;;;;;;4.67;100.00;98707.97;5075347;28;20743;-36
2023/03/10 01:43:34;;;;;;;7.95;6.85;;;;;;;4.55;100.00;98697.34;5074600;28;19919;-36
2023/03/10 01:45:59;;;;;;;7.07;6.38;;;;;;;4.66;100.00;98714.38;5075148;28;20522;-36
2023/03/10 01:48:27;;;;;;;7.03;6.43;;;;;;;4.66;100.00;98711.69;5074515;28;20028;-36
2023/03/10 01:50:54;;;;;;;6.85;6.15;;;;;;;4.68;100.00;98703.41;5074480;28;20100;-36
2023/03/10 01:53:21;;;;;;;7.43;6.72;;;;;;;4.71;100.00;98697.56;5074132;28;20032;-36
2023/03/10 01:55:51;;;;;;;7.38;6.47;;;;;;;4.73;100.00;98692.78;5075007;28;20029;-36
2023/03/10 01:58:19;;;;;;;8.20;7.30;;;;;;;4.63;100.00;98672.03;5074589;28;20024;-36
2023/03/10 02:00:45;;;;;;;9.00;7.70;;;;;;;4.76;100.00;98679.72;5074628;28;20041;-36
2023/03/10 02:03:24;;;;;;;8.27;7.45;;;;;;;4.79;100.00;98673.88;5075089;28;20041;-36
2023/03/10 02:05:59;;;;;;;7.85;6.95;;;;;;;4.82;100.00;98685.94;5073895;28;20116;-36
2023/03/10 02:08:29;;;;;;;7.90;7.10;;;;;;;4.82;100.00;98689.44;5074127;28;20032;-36
2023/03/10 02:11:00;;;;;;;9.18;7.50;;;;;;;4.78;100.00;98682.97;5074705;28;20070;-36
2023/03/10 02:13:25;;;;;;;8.10;7.30;;;;;;;4.88;100.00;98690.31;5074345;28;20357;-36
2023/03/10 02:15:51;;;;;;;7.87;7.07;;;;;;;4.84;100.00;98676.63;5074128;28;20025;-36
2023/03/10 02:18:18;;;;;;;7.47;6.60;;;;;;;4.91;100.00;98690.63;5074017;28;20027;-36
2023/03/10 02:20:50;;;;;;;8.18;7.35;;;;;;;4.91;100.00;98679.13;5073904;28;20112;-36
2023/03/10 02:23:24;;;;;;;6.97;6.30;;;;;;;4.93;100.00;98686.91;5074157;28;20025;-36
2023/03/10 02:26:20;;;;;;;7.13;6.43;;;;;;;4.94;100.00;98678.63;5073935;28;20025;-36
2023/03/10 02:28:48;;;;;;;8.23;7.43;;;;;;;4.95;100.00;98676.78;5073907;28;20096;-36
2023/03/10 02:31:15;;;;;;;8.35;7.43;;;;;;;4.94;100.00;98669.78;5073611;28;20036;-36
2023/03/10 02:33:43;;;;;;;8.23;7.43;;;;;;;4.93;100.00;98662.78;5074011;28;20350;-36
2023/03/10 02:36:21;;;;;;;8.73;7.80;;;;;;;4.92;100.00;98656.63;5073795;28;20028;-36
2023/03/10 02:38:47;;;;;;;8.85;7.95;;;;;;;4.90;100.00;98656.88;5074335;28;20027;-36
2023/03/10 02:41:20;;;;;;;7.78;7.07;;;;;;;4.94;100.00;98654.53;5073992;28;20020;-36
2023/03/10 02:43:47;;;;;;;9.48;7.47;;;;;;;4.93;100.00;98649.41;5073697;28;20063;-36
2023/03/10 02:46:13;;;;;;;6.32;5.72;;;;;;;4.93;100.00;98646.72;5074178;28;20028;-36
2023/03/10 02:48:39;;;;;;;8.27;7.47;;;;;;;4.93;100.00;98641.38;5073329;28;20480;-36
2023/03/10 02:51:08;;;;;;;;;;;;;;;4.95;100.00;98637.41;5074870;28;20024;-36
2023/03/10 02:53:33;;;;;;;8.10;7.13;;;;;;;4.89;100.00;98639.22;5073575;28;20384;-36
2023/03/10 02:55:59;;;;;;;7.60;6.90;;;;;;;4.79;100.00;98620.31;5073324;28;20025;-36
2023/03/10 02:58:27;;;;;;;7.28;6.57;;;;;;;4.85;100.00;98637.28;5073748;28;20020;-36
2023/03/10 03:00:52;;;;;;;7.20;6.50;;;;;;;4.81;100.00;98639.63;5073827;28;20064;-36
2023/03/10 03:03:19;;;;;;;7.43;6.68;;;;;;;4.81;100.00;98642.28;5073769;28;20112;-36
2023/03/10 03:05:46;;;;;;;7.40;6.40;;;;;;;4.81;100.00;98633.47;5073238;28;20487;-36
2023/03/10 03:08:11;;;;;;;;;;;;;;;4.87;100.00;98629.78;5073863;28;20074;-36
2023/03/10 03:10:37;;;;;;;7.07;6.10;;;;;;;4.82;100.00;98633.19;5073104;28;19912;-36
2023/03/10 03:13:04;;;;;;;7.07;6.38;;;;;;;4.68;100.00;98597.13;5073089;28;20111;-36
2023/03/10 03:15:29;;;;;;;5.78;5.18;;;;;;;4.87;100.00;98622.56;5073633;28;20029;-36
2023/03/10 03:17:57;;;;;;;7.00;5.97;;;;;;;4.80;100.00;98613.09;5073603;28;20082;-36
2023/03/10 03:20:23;;;;;;;6.80;6.20;;;;;;;4.76;100.00;98604.75;5073225;28;20270;-36
2023/03/10 03:22:48;;;;;;;;;;;;;;;4.91;100.00;98620.19;5073686;28;20082;-37
2023/03/10 03:25:16;;;;;;;6.03;5.43;;;;;;;4.87;100.00;98609.16;5073018;28;19909;-36
2023/03/10 03:27:43;;;;;;;6.57;5.97;;;;;;;4.87;100.00;98619.06;5073236;28;20020;-36
2023/03/10 03:30:13;;;;;;;6.53;5.93;;;;;;;4.87;100.00;98616.41;5073496;28;20074;-35
2023/03/10 03:32:39;;;;;;;5.82;5.32;;;;;;;4.87;100.00;98617.19;5073996;28;20054;-35
2023/03/10 03:35:12;;;;;;;6.97;5.50;;;;;;;4.87;100.00;98622.56;5072763;28;20115;-35
2023/03/10 03:37:37;;;;;;;5.93;5.30;;;;;;;4.88;100.00;98626.88;5073700;28;20041;-35
2023/03/10 03:40:12;;;;;;;6.63;5.43;;;;;;;4.86;100.00;98620.94;5073491;28;20469;-35
2023/03/10 03:42:43;;;;;;;6.75;6.15;;;;;;;4.83;100.00;98616.09;5073555;28;20381;-35
2023/03/10 03:45:09;;;;;;;6.93;6.22;;;;;;;4.77;100.00;98610.91;5072811;28;20025;-35
2023/03/10 03:47:35;;;;;;;8.02;6.20;;;;;;;4.75;100.00;98618.38;5073870;28;20107;-35
2023/03/10 03:50:01;;;;;;;7.83;6.87;;;;;;;4.71;100.00;98611.91;5077115;28;20105;-35
2023/03/10 03:52:26;;;;;;;7.13;6.43;;;;;;;4.71;100.00;98606.56;5076483;28;20029;-35
2023/03/10 03:54:52;;;;;;;6.35;5.75;;;;;;;4.73;100.00;98610.59;5076486;28;20531;-35
2023/03/10 03:57:17;;;;;;;6.27;5.70;;;;;;;4.74;100.00;98611.41;5076425;28;20051;-35
2023/03/10 03:59:43;;;;;;;7.15;6.45;;;;;;;4.68;100.00;98593.66;5076621;28;20086;-36
2023/03/10 04:02:08;;;;;;;6.67;5.97;;;;;;;4.77;100.00;98605.56;5076454;28;20064;-37
2023/03/10 04:04:34;;;;;;;6.20;5.60;;;;;;;4.81;100.00;98606.69;5076344;28;20036;-36
2023/03/10 04:07:00;;;;;;;6.10;5.57;;;;;;;4.87;100.00;98611.03;5076495;28;20476;-35
2023/03/10 04:09:25;;;;;;;6.15;5.63;;;;;;;4.86;100.00;98596.84;5076749;28;20024;-36
2023/03/10 04:11:51;;;;;;;6.23;5.33;;;;;;;4.82;100.00;98581.53;5076932;28;20040;-35
2023/03/10 04:14:16;;;;;;;7.23;5.40;;;;;;;5.00;100.00;98593.81;5076735;28;20052;-35
2023/03/10 04:16:41;;;;;;;7.77;5.77;;;;;;;5.20;100.00;98596.72;5076861;28;20797;-35
2023/03/10 04:19:07;;;;;;;8.67;5.93;;;;;;;5.28;100.00;98601.63;5076282;28;20033;-35
2023/03/10 04:21:35;;;;;;;7.17;5.90;;;;;;;5.37;100.00;98600.13;5076174;28;20039;-35
2023/03/10 04:24:01;;;;;;;8.23;6.15;;;;;;;5.39;100.00;98565.84;5076778;28;20020;-35
2023/03/10 04:26:28;;;;;;;8.05;5.43;;;;;;;5.77;100.00;98587.38;5076741;28;20082;-35
2023/03/10 04:28:53;;;;;;;9.93;6.47;;;;;;;5.86;100.00;98585.88;5076044;28;20481;-35
2023/03/10 04:31:19;;;;;;;7.90;5.27;;;;;;;6.01;100.00;98572.59;5076088;28;20028;-35
2023/03/10 04:33:44;;;;;;;7.05;5.10;;;;;;;6.16;100.00;98588.00;5076002;28;20310;-35
2023/03/10 04:36:10;;;;;;;9.17;4.77;;;;;;;6.06;100.00;98553.88;5076305;28;20056;-35
2023/03/10 04:38:35;;;;;;;9.30;5.07;;;;;;;6.44;100.00;98581.47;5075824;28;20083;-35
2023/03/10 04:41:01;;;;;;;11.50;5.03;;;;;;;6.37;100.00;98570.97;5076424;28;20035;-36
2023/03/10 04:43:27;;;;;;;6.70;4.25;;;;;;;6.48;100.00;98576.41;5075538;28;20108;-36
2023/03/10 04:45:53;;;;;;;8.38;4.38;;;;;;;6.58;100.00;98568.41;5075889;28;20024;-36
2023/03/10 04:48:18;;;;;;;9.25;4.13;;;;;;;6.61;100.00;98573.25;5075748;28;20040;-35
2023/03/10 04:50:44;;;;;;;11.07;4.07;;;;;;;6.68;100.00;98565.78;5075497;28;20032;-35
2023/03/10 04:53:09;;;;;;;11.80;4.13;;;;;;;6.66;100.00;98567.91;5075677;28;20024;-35
2023/03/10 04:55:35;;;;;;;8.98;4.50;;;;;;;6.68;100.00;98568.47;5075940;28;20033;-36
2023/03/10 04:58:00;;;;;;;10.23;4.27;;;;;;;6.60;100.00;98563.59;5075604;28;20024;-36
2023/03/10 05:00:26;;;;;;;8.70;3.70;;;;;;;6.64;100.00;98570.06;5075379;28;20154;-36
2023/03/10 05:02:51;;;;;;;14.68;4.00;;;;;;;6.60;100.00;98566.28;5075977;28;20040;-35
2023/03/10 05:05:17;;;;;;;7.68;3.45;;;;;;;6.56;100.00;98555.25;5076319;28;20410;-36
2023/03/10 05:07:42;;;;;;;7.37;3.50;;;;;;;6.60;100.00;98569.78;5075421;28;20040;-35
2023/03/10 05:10:09;;;;;;;10.38;3.38;;;;;;;6.54;100.00;98556.56;5075908;28;20608;-35
2023/03/10 05:12:36;;;;;;;8.63;2.97;;;;;;;6.58;100.00;98560.34;5075098;28;20032;-35
2023/03/10 05:15:03;;;;;;;10.70;3.90;;;;;;;6.61;100.00;98559.84;5075430;28;20028;-35
2023/03/10 05:17:29;;;;;;;;;;;;;;;6.58;100.00;98561.16;5075727;28;20375;-35
2023/03/10 05:19:54;;;;;;;8.05;2.90;;;;;;;6.45;100.00;98534.78;5075818;28;20006;-35
2023/03/10 05:22:19;;;;;;;10.90;3.53;;;;;;;6.61;100.00;98554.47;5074869;28;20031;-36
2023/03/10 05:24:46;;;;;;;13.43;4.33;;;;;;;6.73;100.00;98563.09;5075511;28;20415;-36
2023/03/10 05:27:13;;;;;;;9.32;2.85;;;;;;;6.70;100.00;98555.59;5075138;28;20025;-36
2023/03/10 05:29:39;;;;;;;9.05;3.28;;;;;;;6.58;100.00;98536.19;5074913;28;20039;-36
2023/03/10 05:32:04;;;;;;;9.93;3.07;;;;;;;6.73;100.00;98552.38;5074594;28;20029;-36
2023/03/10 05:34:30;;;;;;;12.60;3.60;;;;;;;6.74;100.00;98551.31;5075934;28;20426;-36
2023/03/10 05:36:55;;;;;;;9.33;3.03;;;;;;;6.61;100.00;98532.97;5074461;28;20082;-36
2023/03/10 05:39:21;;;;;;;12.13;3.78;;;;;;;6.71;100.00;98546.47;5074738;28;20029;-36
2023/03/10 05:41:46;;;;;;;12.95;4.18;;;;;;;6.75;100.00;98561.00;5074605;28;20024;-36
2023/03/10 05:44:12;;;;;;;11.87;3.03;;;;;;;6.70;100.00;98556.41;5074969;28;20029;-36
2023/03/10 05:46:37;;;;;;;9.20;3.53;;;;;;;6.83;100.00;98563.19;5074344;28;20052;-36
2023/03/10 05:49:03;;;;;;;10.30;3.00;;;;;;;6.78;100.00;98573.88;5074480;28;20064;-36
2023/03/10 05:51:28;;;;;;;13.53;3.70;;;;;;;6.80;100.00;98568.25;5075322;28;20056;-36
2023/03/10 05:53:53;;;;;;;18.03;5.13;;;;;;;6.86;100.00;98576.06;5074467;28;20769;-36
2023/03/10 05:56:19;;;;;;;9.55;3.60;;;;;;;6.86;100.00;98559.16;5075518;28;20029;-36
2023/03/10 05:58:45;;;;;;;10.95;3.83;;;;;;;6.85;100.00;98566.41;5074333;28;20358;-36
2023/03/10 06:01:12;;;;;;;11.77;4.00;;;;;;;6.90;100.00;98563.75;5073934;28;20070;-35
2023/03/10 06:03:37;;;;;;;11.80;3.97;;;;;;;6.93;100.00;98560.53;5074895;28;20052;-36
2023/03/10 06:06:05;;;;;;;11.98;4.40;;;;;;;6.80;100.00;98552.94;5073972;28;20078;-36
2023/03/10 06:08:31;;;;;;;15.00;4.78;;;;;;;6.82;100.00;98561.53;5073862;28;20498;-36
2023/03/10 06:10:57;;;;;;;;;;;;;;;6.85;100.00;98562.91;5072878;28;20040;-36
2023/03/10 06:13:23;;;;;;;9.55;4.13;;;;;;;6.89;100.00;98567.50;5074108;28;19912;-36
2023/03/10 06:15:54;;;;;;;16.35;5.35;;;;;;;6.97;100.00;98569.66;5074363;28;20047;-36
2023/03/10 06:18:20;;;;;;;14.35;3.67;;;;;;;7.03;100.00;98572.38;5074352;28;20086;-36
2023/03/10 06:20:46;;;;;;;13.20;3.75;;;;;;;6.96;100.00;98573.44;5073653;28;20024;-36
2023/03/10 06:23:13;;;;;;;14.68;4.28;;;;;;;6.99;100.00;98574.00;5073868;28;20024;-36
2023/03/10 06:25:38;;;;;;;;;;;;;;;7.00;100.00;98575.59;5074858;28;20425;-36
2023/03/10 06:28:03;;;;;;;16.23;4.70;;;;;;;6.99;100.00;98563.25;5074128;28;19962;-36
2023/03/10 06:30:29;;;;;;;13.70;3.60;;;;;;;7.08;100.00;98580.47;5073675;28;20727;-36
2023/03/10 06:32:54;;;;;;;15.03;3.80;;;;;;;7.06;100.00;98575.34;5073793;28;20358;-36
2023/03/10 06:35:20;;;;;;;14.73;4.27;;;;;;;7.01;100.00;98580.69;5074396;28;20024;-36
2023/03/10 06:37:45;;;;;;;10.85;3.63;;;;;;;7.00;100.00;98586.34;5073409;28;20056;-36
2023/03/10 06:40:12;;;;;;;18.43;5.27;;;;;;;7.01;100.00;98575.31;5074350;28;20062;-36
2023/03/10 06:42:42;;;;;;;12.80;4.28;;;;;;;7.05;100.00;98587.19;5073557;28;20025;-35
2023/03/10 06:45:09;;;;;;;15.93;4.65;;;;;;;6.95;100.00;98566.44;5073730;28;20028;-35
2023/03/10 06:47:34;;;;;;;20.75;4.63;;;;;;;7.09;100.00;98588.28;5073642;28;20024;-35
2023/03/10 06:50:00;;;;;;;10.33;4.40;;;;;;;7.14;100.00;98590.16;5073994;28;20050;-36
2023/03/10 06:52:26;;;;;;;11.43;4.05;;;;;;;7.02;100.00;98576.94;5073253;28;20041;-36
2023/03/10 06:54:51;;;;;;;11.10;4.10;;;;;;;7.06;100.00;98594.16;5073380;28;20031;-36
2023/03/10 06:57:17;;;;;;;11.63;3.93;;;;;;;7.16;100.00;98598.78;5073291;28;20488;-36
2023/03/10 06:59:42;;;;;;;11.47;3.67;;;;;;;7.04;100.00;98569.44;5073533;28;20376;-36
2023/03/10 07:02:10;;;;;;;14.70;3.80;;;;;;;7.13;100.00;98593.94;5073187;28;20340;-36
2023/03/10 07:04:36;;;;;;;16.27;5.07;;;;;;;7.19;100.00;98595.56;5074277;28;20029;-36
2023/03/10 07:07:01;;;;;;;12.20;5.93;;;;;;;7.11;100.00;98598.75;5074003;28;20051;-36
2023/03/10 07:09:26;;;;;;;16.17;7.03;;;;;;;7.07;100.00;98606.53;5073452;28;20107;-36
2023/03/10 07:11:51;;;;;;;9.00;5.77;;;;;;;7.01;100.00;98594.13;5073355;28;20037;-35
2023/03/10 07:14:17;;;;;;;19.03;7.13;;;;;;;7.01;100.00;98596.03;5073145;28;20025;-35
2023/03/10 07:16:45;;;;;;;19.07;9.60;;;;;;;6.99;100.00;98588.22;5073151;28;20033;-36
2023/03/10 07:19:10;;;;;;;13.68;7.72;;;;;;;6.91;100.00;98600.28;5073595;28;20067;-35
2023/03/10 07:21:35;;;;;;;16.90;9.10;;;;;;;6.91;100.00;98608.34;5073808;28;20033;-36
2023/03/10 07:24:01;;;;;;;16.70;8.93;;;;;;;6.87;100.00;98614.50;5076758;28;20051;-35
2023/03/10 07:26:26;;;;;;;11.80;7.80;;;;;;;6.80;100.00;98604.00;5077318;28;20179;-36
2023/03/10 07:28:53;;;;;;;20.33;9.17;;;;;;;6.85;100.00;98608.59;5077569;28;20055;-35
2023/03/10 07:31:18;;;;;;;18.73;9.38;;;;;;;6.82;100.00;98615.28;5077744;28;20365;-36
2023/03/10 07:33:44;;;;;;;17.05;9.13;;;;;;;6.78;100.00;98610.69;5077393;28;20111;-35
2023/03/10 07:36:12;;;;;;;14.98;8.43;;;;;;;6.80;100.00;98614.72;5077934;28;20352;-36
2023/03/10 07:38:38;;;;;;;14.20;8.50;;;;;;;6.80;100.00;98620.09;5076679;28;20111;-35
2023/03/10 07:41:08;;;;;;;19.00;9.23;;;;;;;6.84;100.00;98612.34;5076679;28;20039;-35
2023/03/10 07:43:34;;;;;;;12.70;7.95;;;;;;;6.86;100.00;98619.06;5077158;28;20370;-35
2023/03/10 07:46:04;;;;;;;15.48;8.15;;;;;;;6.87;100.00;98617.97;5077196;28;20135;-35
2023/03/10 07:48:29;;;;;;;25.70;9.73;;;;;;;6.93;100.00;98627.72;5076797;28;20078;-36
2023/03/10 07:50:56;;;;;;;19.37;9.50;;;;;;;6.99;100.00;98627.72;5077425;28;20112;-36
2023/03/10 07:53:21;;;;;;;15.77;8.82;;;;;;;6.98;100.00;98624.25;5076736;28;20028;-36
2023/03/10 07:55:47;;;;;;;15.23;10.43;;;;;;;7.06;100.00;98628.28;5077111;28;20031;-36
2023/03/10 07:58:12;;;;;;;15.43;8.50;;;;;;;7.09;100.00;98611.66;5076414;28;20275;-36
2023/03/10 08:00:37;;;;;;;12.87;7.00;;;;;;;7.29;100.00;98627.06;5076913;28;20031;-36
2023/03/10 08:03:03;;;;;;;14.17;6.77;;;;;;;7.28;100.00;98606.63;5076465;28;20075;-35
2023/03/10 08:05:28;;;;;;;14.23;7.17;;;;;;;7.36;100.00;98623.03;5076343;28;20115;-36
2023/03/10 08:07:53;;;;;;;13.97;6.27;;;;;;;7.33;100.00;98609.31;5075306;28;20032;-36
2023/03/10 08:10:19;;;;;;;13.27;6.33;;;;;;;7.51;100.00;98621.47;5077361;28;20034;-36
2023/03/10 08:12:44;;;;;;;12.00;5.80;;;;;;;7.61;100.00;98618.78;5076393;28;20042;-36
2023/03/10 08:15:10;;;;;;;13.73;5.53;;;;;;;7.72;100.00;98620.44;5076499;28;20430;-35
2023/03/10 08:17:35;;;;;;;11.93;5.30;;;;;;;7.77;100.00;98612.38;5076873;28;20082;-35
2023/03/10 08:20:01;;;;;;;12.40;5.07;;;;;;;7.85;100.00;98614.53;5076343;28;20028;-36
2023/03/10 08:22:27;;;;;;;8.77;4.97;;;;;;;7.97;100.00;98615.09;5076225;28;20485;-35
2023/03/10 08:24:53;;;;;;;8.77;4.60;;;;;;;8.12;100.00;98630.44;5076191;28;20489;-35
2023/03/10 08:27:18;;;;;;;10.93;5.22;;;;;;;8.18;100.00;98631.25;5076468;28;20024;-36
2023/03/10 08:29:44;;;;;;;10.68;5.20;;;;;;;8.26;100.00;98628.03;5076121;28;20465;-36
2023/03/10 08:32:09;;;;;;;12.03;5.03;;;;;;;8.30;100.00;98628.31;5076057;28;20111;-36
2023/03/10 08:34:35;;;;;;;15.00;5.70;;;;;;;8.31;100.00;98625.34;5075644;28;20301;-36
2023/03/10 08:37:01;;;;;;;13.70;5.50;;;;;;;8.29;100.00;98618.59;5076047;28;20027;-36
2023/03/10 08:39:27;;;;;;;16.55;6.32;;;;;;;8.32;100.00;98610.78;5076558;28;20031;-36
2023/03/10 08:41:53;;;;;;;14.00;5.25;;;;;;;8.40;100.00;98626.44;5075790;28;20046;-36
2023/03/10 08:44:19;;;;;;;12.23;3.73;;;;;;;8.43;100.00;98633.97;5076452;28;20036;-36
2023/03/10 08:46:45;;;;;;;;;;;;;;;8.51;100.00;98633.44;5075981;28;20040;-36
2023/03/10 08:49:11;;;;;;;11.70;2.72;;;;;;;8.32;100.00;98609.97;5075735;28;19908;-36
2023/03/10 08:51:38;;;;;;;13.35;3.70;;;;;;;8.49;100.00;98634.75;5076206;28;20039;-36
2023/03/10 08:54:04;;;;;;;10.38;3.33;;;;;;;8.49;100.00;98632.06;5075684;28;20025;-36
2023/03/10 08:56:29;;;;;;;10.20;2.97;;;;;;;8.52;100.00;98628.84;5075374;28;20025;-36
2023/03/10 08:58:57;;;;;;;11.88;3.55;;;;;;;8.58;100.00;98632.34;5075635;28;20031;-36
2023/03/10 09:01:25;;;;;;;14.90;3.10;;;;;;;8.66;100.00;98627.22;5075463;28;20032;-36
2023/03/10 09:03:51;;;;;;;11.60;3.25;;;;;;;8.74;100.00;98628.56;5076108;28;20381;-36
2023/03/10 09:06:16;;;;;;;12.23;3.20;;;;;;;8.69;100.00;98615.91;5075494;28;20028;-36
2023/03/10 09:08:42;;;;;;;14.65;3.58;;;;;;;8.77;100.00;98619.91;5075089;28;20033;-36
2023/03/10 09:11:09;;;;;;;8.07;2.80;;;;;;;8.76;100.00;98626.38;5075662;28;20042;-36
2023/03/10 09:13:34;;;;;;;8.82;2.60;;;;;;;8.71;100.00;98623.69;5075302;28;20033;-36
2023/03/10 09:16:00;;;;;;;8.07;2.80;;;;;;;8.70;100.00;98622.09;5076130;28;20040;-36
2023/03/10 09:18:25;;;;;;;8.20;2.67;;;;;;;8.69;100.00;98615.91;5075165;28;20027;-36
2023/03/10 09:20:51;;;;;;;11.33;2.93;;;;;;;8.64;100.00;98612.41;5075464;28;20025;-36
2023/03/10 09:23:18;;;;;;;9.68;2.72;;;;;;;8.59;100.00;98607.84;5075056;28;20038;-36
2023/03/10 09:25:43;;;;;;;8.40;2.70;;;;;;;8.64;100.00;98617.81;5075362;28;20150;-36
2023/03/10 09:28:10;;;;;;;9.53;3.50;;;;;;;8.63;100.00;98622.34;5075538;28;20032;-36
2023/03/10 09:30:38;;;;;;;8.60;2.97;;;;;;;8.67;100.00;98625.31;5075508;28;20059;-36
2023/03/10 09:33:05;;;;;;;10.68;3.08;;;;;;;8.67;100.00;98619.94;5075454;28;20033;-36
2023/03/10 09:35:30;;;;;;;10.88;3.70;;;;;;;8.69;100.00;98620.50;5075477;28;20457;-36
2023/03/10 09:37:56;;;;;;;8.80;3.20;;;;;;;8.70;100.00;98606.72;5074582;28;20033;-36
2023/03/10 09:40:22;;;;;;;9.77;2.60;;;;;;;8.72;100.00;98615.34;5075322;28;20024;-36
2023/03/10 09:42:52;;;;;;;;;;;;;;;8.78;100.00;98613.44;5075575;28;20411;-35
2023/03/10 09:45:42;;;;;;;10.07;2.60;;;;;;;8.80;100.00;98615.88;5073880;28;19912;-35
2023/03/10 09:48:11;;;;;;;8.85;2.42;;;;;;;8.76;100.00;98612.91;5074266;28;20025;-35
2023/03/10 09:50:39;;;;;;;9.32;2.30;;;;;;;8.81;100.00;98615.59;5074639;28;20085;-35
2023/03/10 09:53:38;;;;;;;9.43;2.30;;;;;;;8.83;100.00;98618.00;5074415;28;20036;-35
2023/03/10 09:56:11;;;;;;;8.35;2.78;;;;;;;8.82;100.00;98627.97;5075234;28;20039;-36
2023/03/10 09:58:44;;;;;;;10.38;3.13;;;;;;;8.88;100.00;98621.53;5074660;28;20090;-36
2023/03/10 10:01:31;;;;;;;7.13;2.53;;;;;;;8.96;100.00;98625.53;5074638;28;20032;-36
2023/03/10 10:04:06;;;;;;;7.45;2.38;;;;;;;9.06;100.00;98630.88;5074376;28;20076;-36
2023/03/10 10:06:35;;;;;;;5.88;1.98;;;;;;;9.02;100.00;98622.53;5074832;28;20036;-36
2023/03/10 10:09:09;;;;;;;6.22;1.95;;;;;;;9.11;100.00;98641.66;5074480;28;20038;-36
2023/03/10 10:11:37;;;;;;;6.78;1.90;;;;;;;9.01;100.00;98629.00;5074715;28;20368;-36
2023/03/10 10:14:16;;;;;;;6.95;1.90;;;;;;;9.05;100.00;98639.25;5074124;28;20028;-36
2023/03/10 10:17:05;;;;;;;5.93;1.58;;;;;;;9.11;100.00;98652.44;5074618;28;20487;-36
2023/03/10 10:19:31;;;;;;;6.85;1.95;;;;;;;8.86;100.00;98607.50;5074577;28;20047;-36
2023/03/10 10:22:07;;;;;;;5.45;1.80;;;;;;;9.12;100.00;98645.16;5073676;28;20074;-36
2023/03/10 10:24:32;;;;;;;6.03;2.47;;;;;;;9.13;100.00;98646.78;5074847;28;20031;-37
2023/03/10 10:26:58;;;;;;;8.50;2.17;;;;;;;9.13;100.00;98641.41;5074217;28;20111;-37
2023/03/10 10:29:33;;;;;;;8.18;1.70;;;;;;;9.13;100.00;98652.97;5073909;28;20379;-36
2023/03/10 10:32:08;;;;;;;7.45;1.98;;;;;;;9.16;100.00;98659.69;5074164;28;20154;-36
2023/03/10 10:34:35;;;;;;;8.75;2.20;;;;;;;9.17;100.00;98653.22;5074322;28;20021;-36
2023/03/10 10:37:04;;;;;;;7.53;2.00;;;;;;;9.16;100.00;98654.31;5073832;28;20468;-37
2023/03/10 10:39:31;;;;;;;5.45;2.03;;;;;;;9.15;100.00;98656.19;5073803;28;20138;-36
2023/03/10 10:42:23;;;;;;;5.40;1.52;;;;;;;9.16;100.00;98652.41;5073647;28;20025;-36
2023/03/10 10:44:52;;;;;;;6.45;2.10;;;;;;;9.14;100.00;98656.47;5074048;28;20063;-36
2023/03/10 10:47:26;;;;;;;5.40;2.10;;;;;;;9.12;100.00;98650.53;5073629;28;20379;-34
2023/03/10 10:49:53;;;;;;;7.45;2.15;;;;;;;9.01;100.00;98639.78;5073998;28;20465;-36
2023/03/10 10:52:23;;;;;;;;;;;;;;;9.11;100.00;98641.66;5073709;28;20028;-37
2023/03/10 10:54:57;;;;;;;7.30;2.13;;;;;;;9.01;100.00;98638.97;5074402;28;19955;-37
2023/03/10 10:57:30;;;;;;;9.10;2.38;;;;;;;8.95;100.00;98635.50;5073007;28;20040;-37
2023/03/10 11:00:29;;;;;;;6.75;2.30;;;;;;;8.79;100.00;98614.25;5074345;28;20065;-35
2023/03/10 11:02:55;;;;;;;8.88;2.38;;;;;;;8.73;100.00;98614.25;5073298;28;20053;-37
2023/03/10 11:05:24;;;;;;;8.95;2.78;;;;;;;8.87;100.00;98633.34;5073797;28;20116;-36
2023/03/10 11:07:51;;;;;;;6.82;2.15;;;;;;;8.94;100.00;98635.78;5073394;28;20024;-36
2023/03/10 11:10:26;;;;;;;4.95;1.67;;;;;;;8.97;100.00;98638.72;5073425;28;20028;-36
2023/03/10 11:13:11;;;;;;;6.78;2.05;;;;;;;9.01;100.00;98638.97;5073354;28;20039;-36
2023/03/10 11:15:55;;;;;;;6.25;2.10;;;;;;;9.02;100.00;98636.00;5074176;28;20475;-35
2023/03/10 11:18:40;;;;;;;5.57;2.42;;;;;;;9.05;100.00;98633.84;5073661;28;20035;-35
2023/03/10 11:21:17;;;;;;;5.45;2.70;;;;;;;9.07;100.00;98629.00;5074057;28;20025;-35
2023/03/10 11:23:48;;;;;;;;;;;;;;;9.14;100.00;98629.53;5073830;28;20051;-35
2023/03/10 11:26:35;;;;;;;5.95;2.28;;;;;;;9.04;100.00;98624.97;5073340;28;19935;-35
2023/03/10 11:29:18;;;;;;;8.02;2.28;;;;;;;8.98;100.00;98624.19;5073196;28;20071;-35
2023/03/10 11:32:18;;;;;;;6.95;2.35;;;;;;;9.00;100.00;98611.22;5073760;28;20040;-36
2023/03/10 11:34:52;;;;;;;10.73;3.03;;;;;;;8.88;100.00;98596.44;5061974;28;20126;-36
2023/03/10 11:37:40;;;;;;;5.70;2.67;;;;;;;8.93;100.00;98613.41;5073469;28;20059;-36